Main page
METAR-TAF:

METAR-TAF

Airports :

Chanute Martin Johnson Airport

Chanute, Kansas, United States

latitude: 37-40-13N, longitude: 095-29-03W, elevation: 1000 ft

Current weather observation

The report was made 1 hour and 10 minutes ago, at 00:52 UTC
Wind 5 mph from the East/Southeast
Temperature 84°F
Humidity 62%
Pressure 30.13 in. Hg
Visibility: 10 miles
Few clouds at a height of 6000 ft

METAR: KCNU 200052Z AUTO 12004KT 10SM FEW060 29/21 A3013 RMK AO2 SLP192 T02940206

Time: 21:02 (02:02 UTC)

Forecast

The report was made 2 hours and 42 minutes ago, at 23:20 UTC
Forecast valid from 20 at 00 UTC to 20 at 24 UTC
Wind 5 mph from variable directions
Visibility: 6 miles
Scattered clouds at a height of 7000 ft

TAF: KCNU 192320Z 2000/2024 VRB04KT P6SM SCT070

Weather observations and forecasts of more than 4000 airports (METAR and TAF reports).

The available stations are represented by yellow and red dots on the map.

Hover mouse over dot to see the name of the station.

Then click to see weather observations and forecasts.

To change the map : click on the green buttons with a black cross to zoom in, on the green button with a dash to zoom out, or on the green arrows for adjacent maps.


METAR-TAF: